sensor_id;sensor_type;location;lat;lon;timestamp;P1;durP1;ratioP1;P2;durP2;ratioP2
22531;SDS011;11432;46.924;7.114;2022-11-14T00:03:03;16.75;;;10.02;;
22531;SDS011;11432;46.924;7.114;2022-11-14T00:05:30;17.02;;;9.25;;
22531;SDS011;11432;46.924;7.114;2022-11-14T00:07:56;16.40;;;9.85;;
22531;SDS011;11432;46.924;7.114;2022-11-14T00:10:22;16.52;;;9.18;;
22531;SDS011;11432;46.924;7.114;2022-11-14T00:12:48;16.20;;;9.27;;
22531;SDS011;11432;46.924;7.114;2022-11-14T00:15:13;17.00;;;10.50;;
22531;SDS011;11432;46.924;7.114;2022-11-14T00:17:39;16.58;;;9.65;;
22531;SDS011;11432;46.924;7.114;2022-11-14T00:20:05;16.17;;;9.52;;
22531;SDS011;11432;46.924;7.114;2022-11-14T00:22:32;16.95;;;10.15;;
22531;SDS011;11432;46.924;7.114;2022-11-14T00:24:58;15.63;;;9.57;;
22531;SDS011;11432;46.924;7.114;2022-11-14T00:27:23;16.80;;;9.85;;
22531;SDS011;11432;46.924;7.114;2022-11-14T00:29:49;16.27;;;9.75;;
22531;SDS011;11432;46.924;7.114;2022-11-14T00:32:15;13.80;;;8.43;;
22531;SDS011;11432;46.924;7.114;2022-11-14T00:34:41;17.77;;;9.80;;
22531;SDS011;11432;46.924;7.114;2022-11-14T00:37:07;17.70;;;10.15;;
22531;SDS011;11432;46.924;7.114;2022-11-14T00:39:32;17.75;;;10.38;;
22531;SDS011;11432;46.924;7.114;2022-11-14T00:41:58;17.85;;;9.57;;
22531;SDS011;11432;46.924;7.114;2022-11-14T00:44:23;20.23;;;9.95;;
22531;SDS011;11432;46.924;7.114;2022-11-14T00:46:49;17.38;;;10.02;;
22531;SDS011;11432;46.924;7.114;2022-11-14T00:49:15;17.00;;;9.93;;
22531;SDS011;11432;46.924;7.114;2022-11-14T00:51:40;17.60;;;9.65;;
22531;SDS011;11432;46.924;7.114;2022-11-14T00:54:06;15.52;;;9.50;;
22531;SDS011;11432;46.924;7.114;2022-11-14T00:56:31;19.55;;;10.40;;
22531;SDS011;11432;46.924;7.114;2022-11-14T00:58:57;17.25;;;9.88;;
22531;SDS011;11432;46.924;7.114;2022-11-14T01:01:22;17.27;;;10.38;;
22531;SDS011;11432;46.924;7.114;2022-11-14T01:03:49;18.70;;;9.70;;
22531;SDS011;11432;46.924;7.114;2022-11-14T01:06:15;18.50;;;9.65;;
22531;SDS011;11432;46.924;7.114;2022-11-14T01:08:42;14.80;;;8.45;;
22531;SDS011;11432;46.924;7.114;2022-11-14T01:11:14;15.20;;;9.40;;
22531;SDS011;11432;46.924;7.114;2022-11-14T01:13:41;15.55;;;8.70;;
22531;SDS011;11432;46.924;7.114;2022-11-14T01:16:07;16.40;;;9.32;;
22531;SDS011;11432;46.924;7.114;2022-11-14T01:18:33;16.60;;;8.80;;
22531;SDS011;11432;46.924;7.114;2022-11-14T01:21:02;15.40;;;8.57;;
22531;SDS011;11432;46.924;7.114;2022-11-14T01:23:33;16.30;;;8.63;;
22531;SDS011;11432;46.924;7.114;2022-11-14T01:26:06;15.52;;;8.35;;
22531;SDS011;11432;46.924;7.114;2022-11-14T01:28:34;15.80;;;9.15;;
22531;SDS011;11432;46.924;7.114;2022-11-14T01:31:14;16.60;;;8.93;;
22531;SDS011;11432;46.924;7.114;2022-11-14T01:33:43;20.00;;;8.80;;
22531;SDS011;11432;46.924;7.114;2022-11-14T01:36:09;16.45;;;9.10;;
22531;SDS011;11432;46.924;7.114;2022-11-14T01:38:35;15.02;;;8.63;;
22531;SDS011;11432;46.924;7.114;2022-11-14T01:41:01;14.45;;;8.38;;
22531;SDS011;11432;46.924;7.114;2022-11-14T01:43:29;18.30;;;9.23;;
22531;SDS011;11432;46.924;7.114;2022-11-14T01:50:53;14.88;;;9.00;;
22531;SDS011;11432;46.924;7.114;2022-11-14T01:53:24;14.85;;;8.88;;
22531;SDS011;11432;46.924;7.114;2022-11-14T01:55:50;16.73;;;9.32;;
22531;SDS011;11432;46.924;7.114;2022-11-14T01:58:18;13.90;;;8.63;;
22531;SDS011;11432;46.924;7.114;2022-11-14T02:00:45;15.50;;;8.73;;
22531;SDS011;11432;46.924;7.114;2022-11-14T02:03:11;13.27;;;8.02;;
22531;SDS011;11432;46.924;7.114;2022-11-14T02:05:38;16.58;;;8.60;;
22531;SDS011;11432;46.924;7.114;2022-11-14T02:08:05;15.20;;;8.55;;
22531;SDS011;11432;46.924;7.114;2022-11-14T02:10:35;16.35;;;9.18;;
22531;SDS011;11432;46.924;7.114;2022-11-14T02:13:00;14.13;;;8.10;;
22531;SDS011;11432;46.924;7.114;2022-11-14T02:15:26;15.80;;;8.65;;
22531;SDS011;11432;46.924;7.114;2022-11-14T02:17:52;14.90;;;8.50;;
22531;SDS011;11432;46.924;7.114;2022-11-14T02:20:22;16.25;;;9.10;;
22531;SDS011;11432;46.924;7.114;2022-11-14T02:22:57;12.35;;;7.30;;
22531;SDS011;11432;46.924;7.114;2022-11-14T02:25:22;11.48;;;7.05;;
22531;SDS011;11432;46.924;7.114;2022-11-14T02:27:48;12.85;;;7.22;;
22531;SDS011;11432;46.924;7.114;2022-11-14T02:30:16;12.18;;;6.63;;
22531;SDS011;11432;46.924;7.114;2022-11-14T02:35:10;10.27;;;5.97;;
22531;SDS011;11432;46.924;7.114;2022-11-14T02:37:36;9.90;;;6.38;;
22531;SDS011;11432;46.924;7.114;2022-11-14T02:40:02;11.57;;;6.00;;
22531;SDS011;11432;46.924;7.114;2022-11-14T02:42:27;10.35;;;6.68;;
22531;SDS011;11432;46.924;7.114;2022-11-14T02:44:53;10.52;;;6.40;;
22531;SDS011;11432;46.924;7.114;2022-11-14T02:47:19;10.10;;;6.28;;
22531;SDS011;11432;46.924;7.114;2022-11-14T02:49:44;8.98;;;5.43;;
22531;SDS011;11432;46.924;7.114;2022-11-14T02:52:10;9.73;;;5.93;;
22531;SDS011;11432;46.924;7.114;2022-11-14T02:54:35;9.43;;;6.45;;
22531;SDS011;11432;46.924;7.114;2022-11-14T02:57:01;8.73;;;5.30;;
22531;SDS011;11432;46.924;7.114;2022-11-14T02:59:26;9.40;;;5.70;;
22531;SDS011;11432;46.924;7.114;2022-11-14T03:01:52;10.50;;;6.38;;
22531;SDS011;11432;46.924;7.114;2022-11-14T03:04:18;9.13;;;5.75;;
22531;SDS011;11432;46.924;7.114;2022-11-14T03:06:43;8.07;;;5.35;;
22531;SDS011;11432;46.924;7.114;2022-11-14T03:09:09;8.75;;;5.53;;
22531;SDS011;11432;46.924;7.114;2022-11-14T03:11:35;9.00;;;5.60;;
22531;SDS011;11432;46.924;7.114;2022-11-14T03:14:00;9.27;;;5.40;;
22531;SDS011;11432;46.924;7.114;2022-11-14T03:16:26;11.07;;;5.93;;
22531;SDS011;11432;46.924;7.114;2022-11-14T03:18:51;10.52;;;5.90;;
22531;SDS011;11432;46.924;7.114;2022-11-14T03:21:18;10.00;;;5.35;;
22531;SDS011;11432;46.924;7.114;2022-11-14T03:23:45;8.68;;;5.28;;
22531;SDS011;11432;46.924;7.114;2022-11-14T03:26:11;8.18;;;5.40;;
22531;SDS011;11432;46.924;7.114;2022-11-14T03:28:38;8.02;;;5.47;;
22531;SDS011;11432;46.924;7.114;2022-11-14T03:31:05;9.60;;;5.90;;
22531;SDS011;11432;46.924;7.114;2022-11-14T03:33:32;9.02;;;5.40;;
22531;SDS011;11432;46.924;7.114;2022-11-14T03:35:58;9.38;;;5.72;;
22531;SDS011;11432;46.924;7.114;2022-11-14T03:38:23;8.55;;;5.40;;
22531;SDS011;11432;46.924;7.114;2022-11-14T03:40:49;7.70;;;4.82;;
22531;SDS011;11432;46.924;7.114;2022-11-14T03:43:15;8.07;;;5.50;;
22531;SDS011;11432;46.924;7.114;2022-11-14T03:45:42;7.18;;;4.78;;
22531;SDS011;11432;46.924;7.114;2022-11-14T03:48:08;7.13;;;4.65;;
22531;SDS011;11432;46.924;7.114;2022-11-14T03:50:33;7.90;;;5.32;;
22531;SDS011;11432;46.924;7.114;2022-11-14T03:52:59;6.30;;;4.38;;
22531;SDS011;11432;46.924;7.114;2022-11-14T03:55:25;6.90;;;4.25;;
22531;SDS011;11432;46.924;7.114;2022-11-14T03:57:51;6.90;;;3.65;;
22531;SDS011;11432;46.924;7.114;2022-11-14T04:00:16;4.93;;;3.15;;
22531;SDS011;11432;46.924;7.114;2022-11-14T04:02:42;6.45;;;3.83;;
22531;SDS011;11432;46.924;7.114;2022-11-14T04:05:08;6.28;;;3.42;;
22531;SDS011;11432;46.924;7.114;2022-11-14T04:07:34;7.38;;;3.55;;
22531;SDS011;11432;46.924;7.114;2022-11-14T04:09:59;5.43;;;3.47;;
22531;SDS011;11432;46.924;7.114;2022-11-14T04:12:25;4.35;;;3.10;;
22531;SDS011;11432;46.924;7.114;2022-11-14T04:14:50;5.55;;;3.17;;
22531;SDS011;11432;46.924;7.114;2022-11-14T04:17:16;5.75;;;3.38;;
22531;SDS011;11432;46.924;7.114;2022-11-14T04:19:42;6.13;;;3.20;;
22531;SDS011;11432;46.924;7.114;2022-11-14T04:22:07;5.90;;;3.42;;
22531;SDS011;11432;46.924;7.114;2022-11-14T04:24:33;4.10;;;2.92;;
22531;SDS011;11432;46.924;7.114;2022-11-14T04:26:58;4.63;;;2.97;;
22531;SDS011;11432;46.924;7.114;2022-11-14T04:29:24;6.75;;;3.10;;
22531;SDS011;11432;46.924;7.114;2022-11-14T04:31:50;4.25;;;2.80;;
22531;SDS011;11432;46.924;7.114;2022-11-14T04:34:15;4.47;;;3.15;;
22531;SDS011;11432;46.924;7.114;2022-11-14T04:36:41;5.60;;;3.15;;
22531;SDS011;11432;46.924;7.114;2022-11-14T04:39:06;5.57;;;3.17;;
22531;SDS011;11432;46.924;7.114;2022-11-14T04:41:32;5.15;;;2.92;;
22531;SDS011;11432;46.924;7.114;2022-11-14T04:43:58;4.40;;;2.75;;
22531;SDS011;11432;46.924;7.114;2022-11-14T04:46:23;5.28;;;2.90;;
22531;SDS011;11432;46.924;7.114;2022-11-14T04:48:49;5.75;;;3.10;;
22531;SDS011;11432;46.924;7.114;2022-11-14T04:51:14;5.75;;;3.20;;
22531;SDS011;11432;46.924;7.114;2022-11-14T04:53:40;5.40;;;3.70;;
22531;SDS011;11432;46.924;7.114;2022-11-14T04:56:05;7.57;;;3.45;;
22531;SDS011;11432;46.924;7.114;2022-11-14T04:58:31;5.32;;;3.35;;
22531;SDS011;11432;46.924;7.114;2022-11-14T05:00:57;5.55;;;3.70;;
22531;SDS011;11432;46.924;7.114;2022-11-14T05:03:23;6.43;;;3.38;;
22531;SDS011;11432;46.924;7.114;2022-11-14T05:05:49;6.47;;;3.80;;
22531;SDS011;11432;46.924;7.114;2022-11-14T05:08:14;5.78;;;3.40;;
22531;SDS011;11432;46.924;7.114;2022-11-14T05:10:43;4.78;;;3.10;;
22531;SDS011;11432;46.924;7.114;2022-11-14T05:13:10;4.18;;;3.00;;
22531;SDS011;11432;46.924;7.114;2022-11-14T05:15:37;3.65;;;2.72;;
22531;SDS011;11432;46.924;7.114;2022-11-14T05:18:02;4.30;;;2.72;;
22531;SDS011;11432;46.924;7.114;2022-11-14T05:20:28;5.03;;;3.13;;
22531;SDS011;11432;46.924;7.114;2022-11-14T05:22:54;4.97;;;3.08;;
22531;SDS011;11432;46.924;7.114;2022-11-14T05:25:20;3.72;;;2.60;;
22531;SDS011;11432;46.924;7.114;2022-11-14T05:27:46;3.97;;;2.45;;
22531;SDS011;11432;46.924;7.114;2022-11-14T05:30:12;7.75;;;3.80;;
22531;SDS011;11432;46.924;7.114;2022-11-14T05:32:39;16.52;;;6.70;;
22531;SDS011;11432;46.924;7.114;2022-11-14T05:35:04;10.63;;;5.53;;
22531;SDS011;11432;46.924;7.114;2022-11-14T05:37:30;11.20;;;6.10;;
22531;SDS011;11432;46.924;7.114;2022-11-14T05:39:57;12.27;;;6.15;;
22531;SDS011;11432;46.924;7.114;2022-11-14T05:42:23;9.65;;;5.07;;
22531;SDS011;11432;46.924;7.114;2022-11-14T05:44:48;8.52;;;3.83;;
22531;SDS011;11432;46.924;7.114;2022-11-14T05:47:14;6.03;;;3.72;;
22531;SDS011;11432;46.924;7.114;2022-11-14T05:49:40;5.80;;;3.13;;
22531;SDS011;11432;46.924;7.114;2022-11-14T05:52:05;6.25;;;3.92;;
22531;SDS011;11432;46.924;7.114;2022-11-14T05:54:31;5.10;;;3.40;;
22531;SDS011;11432;46.924;7.114;2022-11-14T05:56:56;5.80;;;3.70;;
22531;SDS011;11432;46.924;7.114;2022-11-14T05:59:22;5.90;;;3.60;;
22531;SDS011;11432;46.924;7.114;2022-11-14T06:01:48;5.78;;;3.75;;
22531;SDS011;11432;46.924;7.114;2022-11-14T06:04:13;7.45;;;4.22;;
22531;SDS011;11432;46.924;7.114;2022-11-14T06:06:39;6.47;;;4.10;;
22531;SDS011;11432;46.924;7.114;2022-11-14T06:09:05;8.20;;;4.30;;
22531;SDS011;11432;46.924;7.114;2022-11-14T06:11:31;8.00;;;4.57;;
22531;SDS011;11432;46.924;7.114;2022-11-14T06:13:56;6.35;;;3.90;;
22531;SDS011;11432;46.924;7.114;2022-11-14T06:16:22;5.50;;;3.25;;
22531;SDS011;11432;46.924;7.114;2022-11-14T06:18:48;5.53;;;3.25;;
22531;SDS011;11432;46.924;7.114;2022-11-14T06:21:18;4.80;;;3.20;;
22531;SDS011;11432;46.924;7.114;2022-11-14T06:23:45;6.10;;;3.00;;
22531;SDS011;11432;46.924;7.114;2022-11-14T06:26:14;3.63;;;2.55;;
22531;SDS011;11432;46.924;7.114;2022-11-14T06:28:47;4.22;;;2.45;;
22531;SDS011;11432;46.924;7.114;2022-11-14T06:31:13;4.03;;;2.70;;
22531;SDS011;11432;46.924;7.114;2022-11-14T06:33:39;4.88;;;2.92;;
22531;SDS011;11432;46.924;7.114;2022-11-14T06:36:05;5.57;;;2.80;;
22531;SDS011;11432;46.924;7.114;2022-11-14T06:38:32;5.95;;;3.35;;
22531;SDS011;11432;46.924;7.114;2022-11-14T06:41:00;4.57;;;2.97;;
22531;SDS011;11432;46.924;7.114;2022-11-14T06:43:47;6.03;;;3.55;;
22531;SDS011;11432;46.924;7.114;2022-11-14T06:46:16;6.53;;;3.53;;
22531;SDS011;11432;46.924;7.114;2022-11-14T06:48:43;6.32;;;3.90;;
22531;SDS011;11432;46.924;7.114;2022-11-14T06:51:10;6.57;;;4.22;;
22531;SDS011;11432;46.924;7.114;2022-11-14T06:53:37;4.70;;;3.40;;
22531;SDS011;11432;46.924;7.114;2022-11-14T06:56:04;5.43;;;3.60;;
22531;SDS011;11432;46.924;7.114;2022-11-14T06:58:36;5.55;;;3.92;;
22531;SDS011;11432;46.924;7.114;2022-11-14T07:03:31;5.10;;;4.05;;
22531;SDS011;11432;46.924;7.114;2022-11-14T07:05:57;7.47;;;4.90;;
22531;SDS011;11432;46.924;7.114;2022-11-14T07:08:27;6.72;;;4.80;;
22531;SDS011;11432;46.924;7.114;2022-11-14T07:10:53;7.13;;;4.53;;
22531;SDS011;11432;46.924;7.114;2022-11-14T07:13:24;8.20;;;5.03;;
22531;SDS011;11432;46.924;7.114;2022-11-14T07:15:53;8.60;;;5.03;;
22531;SDS011;11432;46.924;7.114;2022-11-14T07:18:19;7.97;;;5.18;;
22531;SDS011;11432;46.924;7.114;2022-11-14T07:20:45;9.40;;;5.50;;
22531;SDS011;11432;46.924;7.114;2022-11-14T07:23:12;13.00;;;5.32;;
22531;SDS011;11432;46.924;7.114;2022-11-14T07:25:38;8.82;;;5.53;;
22531;SDS011;11432;46.924;7.114;2022-11-14T07:28:04;9.73;;;5.25;;
22531;SDS011;11432;46.924;7.114;2022-11-14T07:30:30;9.15;;;5.57;;
22531;SDS011;11432;46.924;7.114;2022-11-14T07:32:58;10.32;;;5.95;;
22531;SDS011;11432;46.924;7.114;2022-11-14T07:35:24;10.65;;;5.55;;
22531;SDS011;11432;46.924;7.114;2022-11-14T07:37:50;9.13;;;5.82;;
22531;SDS011;11432;46.924;7.114;2022-11-14T07:40:16;8.68;;;5.50;;
22531;SDS011;11432;46.924;7.114;2022-11-14T07:42:42;9.35;;;5.55;;
22531;SDS011;11432;46.924;7.114;2022-11-14T07:45:08;8.55;;;5.70;;
22531;SDS011;11432;46.924;7.114;2022-11-14T07:47:34;9.68;;;5.82;;
22531;SDS011;11432;46.924;7.114;2022-11-14T07:50:00;8.48;;;5.30;;
22531;SDS011;11432;46.924;7.114;2022-11-14T07:52:26;11.40;;;5.50;;
22531;SDS011;11432;46.924;7.114;2022-11-14T07:54:51;9.52;;;5.75;;
22531;SDS011;11432;46.924;7.114;2022-11-14T07:57:17;7.43;;;5.05;;
22531;SDS011;11432;46.924;7.114;2022-11-14T07:59:43;13.77;;;5.40;;
22531;SDS011;11432;46.924;7.114;2022-11-14T08:02:12;8.30;;;5.20;;
22531;SDS011;11432;46.924;7.114;2022-11-14T08:04:38;8.35;;;4.88;;
22531;SDS011;11432;46.924;7.114;2022-11-14T08:07:07;7.72;;;5.10;;
22531;SDS011;11432;46.924;7.114;2022-11-14T08:09:33;7.30;;;5.03;;
22531;SDS011;11432;46.924;7.114;2022-11-14T08:11:58;9.00;;;4.82;;
22531;SDS011;11432;46.924;7.114;2022-11-14T08:14:24;7.00;;;5.30;;
22531;SDS011;11432;46.924;7.114;2022-11-14T08:16:50;9.07;;;5.38;;
22531;SDS011;11432;46.924;7.114;2022-11-14T08:19:16;8.70;;;5.20;;
22531;SDS011;11432;46.924;7.114;2022-11-14T08:21:42;9.95;;;5.30;;
22531;SDS011;11432;46.924;7.114;2022-11-14T08:24:08;8.27;;;5.10;;
22531;SDS011;11432;46.924;7.114;2022-11-14T08:26:33;10.90;;;5.38;;
22531;SDS011;11432;46.924;7.114;2022-11-14T08:28:59;7.60;;;4.90;;
22531;SDS011;11432;46.924;7.114;2022-11-14T08:31:25;7.65;;;5.00;;
22531;SDS011;11432;46.924;7.114;2022-11-14T08:33:51;7.13;;;4.85;;
22531;SDS011;11432;46.924;7.114;2022-11-14T08:36:17;7.38;;;4.70;;
22531;SDS011;11432;46.924;7.114;2022-11-14T08:38:43;7.25;;;4.47;;
22531;SDS011;11432;46.924;7.114;2022-11-14T08:41:08;6.45;;;4.43;;
22531;SDS011;11432;46.924;7.114;2022-11-14T08:43:34;7.85;;;5.15;;
22531;SDS011;11432;46.924;7.114;2022-11-14T08:46:00;6.97;;;4.25;;
22531;SDS011;11432;46.924;7.114;2022-11-14T08:48:27;7.78;;;4.47;;
22531;SDS011;11432;46.924;7.114;2022-11-14T08:50:54;7.43;;;4.10;;
22531;SDS011;11432;46.924;7.114;2022-11-14T08:53:20;10.10;;;4.10;;
22531;SDS011;11432;46.924;7.114;2022-11-14T08:55:46;10.65;;;6.43;;
22531;SDS011;11432;46.924;7.114;2022-11-14T08:58:12;10.93;;;6.47;;
22531;SDS011;11432;46.924;7.114;2022-11-14T09:00:38;9.15;;;6.22;;
22531;SDS011;11432;46.924;7.114;2022-11-14T09:03:07;12.57;;;5.40;;
22531;SDS011;11432;46.924;7.114;2022-11-14T09:05:34;9.68;;;5.82;;
22531;SDS011;11432;46.924;7.114;2022-11-14T09:08:00;7.50;;;4.93;;
22531;SDS011;11432;46.924;7.114;2022-11-14T09:10:26;13.35;;;4.75;;
22531;SDS011;11432;46.924;7.114;2022-11-14T09:12:55;8.75;;;4.95;;
22531;SDS011;11432;46.924;7.114;2022-11-14T09:15:22;6.95;;;4.47;;
22531;SDS011;11432;46.924;7.114;2022-11-14T09:17:51;9.20;;;4.50;;
22531;SDS011;11432;46.924;7.114;2022-11-14T09:20:18;6.72;;;4.65;;
22531;SDS011;11432;46.924;7.114;2022-11-14T09:22:44;8.02;;;4.65;;
22531;SDS011;11432;46.924;7.114;2022-11-14T09:25:09;7.47;;;4.47;;
22531;SDS011;11432;46.924;7.114;2022-11-14T09:27:35;8.40;;;4.88;;
22531;SDS011;11432;46.924;7.114;2022-11-14T09:30:01;8.02;;;4.95;;
22531;SDS011;11432;46.924;7.114;2022-11-14T09:32:26;5.97;;;4.28;;
22531;SDS011;11432;46.924;7.114;2022-11-14T09:34:52;8.20;;;4.50;;
22531;SDS011;11432;46.924;7.114;2022-11-14T09:37:18;8.23;;;5.20;;
22531;SDS011;11432;46.924;7.114;2022-11-14T09:39:43;7.07;;;4.43;;
22531;SDS011;11432;46.924;7.114;2022-11-14T09:45:03;7.93;;;4.40;;
22531;SDS011;11432;46.924;7.114;2022-11-14T09:50:12;7.07;;;4.18;;
22531;SDS011;11432;46.924;7.114;2022-11-14T09:52:57;5.85;;;3.53;;
22531;SDS011;11432;46.924;7.114;2022-11-14T09:55:27;6.93;;;3.25;;
22531;SDS011;11432;46.924;7.114;2022-11-14T09:57:55;5.65;;;3.95;;
22531;SDS011;11432;46.924;7.114;2022-11-14T10:00:22;6.50;;;4.10;;
22531;SDS011;11432;46.924;7.114;2022-11-14T10:13:45;7.43;;;3.90;;
22531;SDS011;11432;46.924;7.114;2022-11-14T10:19:41;6.93;;;3.72;;
22531;SDS011;11432;46.924;7.114;2022-11-14T10:30:37;8.93;;;4.05;;
22531;SDS011;11432;46.924;7.114;2022-11-14T10:35:41;7.72;;;4.07;;
22531;SDS011;11432;46.924;7.114;2022-11-14T10:38:27;6.28;;;3.78;;
22531;SDS011;11432;46.924;7.114;2022-11-14T10:41:03;6.47;;;3.70;;
22531;SDS011;11432;46.924;7.114;2022-11-14T10:43:43;7.25;;;3.60;;
22531;SDS011;11432;46.924;7.114;2022-11-14T10:46:16;8.60;;;3.78;;
22531;SDS011;11432;46.924;7.114;2022-11-14T10:48:50;7.20;;;3.35;;
22531;SDS011;11432;46.924;7.114;2022-11-14T10:56:45;7.25;;;3.58;;
22531;SDS011;11432;46.924;7.114;2022-11-14T10:59:11;6.32;;;3.22;;
22531;SDS011;11432;46.924;7.114;2022-11-14T11:04:19;3.85;;;2.60;;
22531;SDS011;11432;46.924;7.114;2022-11-14T11:06:54;4.70;;;2.70;;
22531;SDS011;11432;46.924;7.114;2022-11-14T11:09:22;7.50;;;2.53;;
22531;SDS011;11432;46.924;7.114;2022-11-14T11:12:09;3.85;;;2.55;;
22531;SDS011;11432;46.924;7.114;2022-11-14T11:14:40;5.38;;;2.15;;
22531;SDS011;11432;46.924;7.114;2022-11-14T11:17:07;7.13;;;2.50;;
22531;SDS011;11432;46.924;7.114;2022-11-14T11:19:39;3.42;;;2.38;;
22531;SDS011;11432;46.924;7.114;2022-11-14T11:22:48;6.68;;;1.70;;
22531;SDS011;11432;46.924;7.114;2022-11-14T11:28:02;5.07;;;2.33;;
22531;SDS011;11432;46.924;7.114;2022-11-14T11:30:36;4.30;;;2.00;;
22531;SDS011;11432;46.924;7.114;2022-11-14T11:33:16;3.75;;;2.85;;
22531;SDS011;11432;46.924;7.114;2022-11-14T11:35:47;4.95;;;2.88;;
22531;SDS011;11432;46.924;7.114;2022-11-14T11:38:15;5.05;;;2.80;;
22531;SDS011;11432;46.924;7.114;2022-11-14T11:40:45;4.53;;;2.63;;
22531;SDS011;11432;46.924;7.114;2022-11-14T11:46:02;5.15;;;2.65;;
22531;SDS011;11432;46.924;7.114;2022-11-14T11:48:36;3.90;;;2.45;;
22531;SDS011;11432;46.924;7.114;2022-11-14T11:51:03;4.75;;;3.00;;
22531;SDS011;11432;46.924;7.114;2022-11-14T11:53:35;3.33;;;2.45;;
22531;SDS011;11432;46.924;7.114;2022-11-14T11:56:12;5.45;;;2.97;;
22531;SDS011;11432;46.924;7.114;2022-11-14T11:58:45;4.22;;;2.85;;
22531;SDS011;11432;46.924;7.114;2022-11-14T12:01:13;8.30;;;3.60;;
22531;SDS011;11432;46.924;7.114;2022-11-14T12:03:46;5.43;;;2.67;;
22531;SDS011;11432;46.924;7.114;2022-11-14T12:11:23;8.57;;;3.20;;
22531;SDS011;11432;46.924;7.114;2022-11-14T12:30:22;4.38;;;2.60;;
22531;SDS011;11432;46.924;7.114;2022-11-14T12:35:25;8.57;;;2.30;;
22531;SDS011;11432;46.924;7.114;2022-11-14T12:38:00;3.33;;;2.03;;
22531;SDS011;11432;46.924;7.114;2022-11-14T12:40:35;5.03;;;2.65;;
22531;SDS011;11432;46.924;7.114;2022-11-14T12:43:05;4.78;;;2.45;;
22531;SDS011;11432;46.924;7.114;2022-11-14T12:50:57;6.13;;;2.22;;
22531;SDS011;11432;46.924;7.114;2022-11-14T12:56:04;4.25;;;2.15;;
22531;SDS011;11432;46.924;7.114;2022-11-14T13:12:17;3.85;;;2.28;;
22531;SDS011;11432;46.924;7.114;2022-11-14T13:15:18;5.78;;;2.28;;
22531;SDS011;11432;46.924;7.114;2022-11-14T13:21:03;8.25;;;3.08;;
22531;SDS011;11432;46.924;7.114;2022-11-14T13:24:09;4.57;;;2.50;;
22531;SDS011;11432;46.924;7.114;2022-11-14T13:26:40;3.90;;;2.40;;
22531;SDS011;11432;46.924;7.114;2022-11-14T13:29:09;4.15;;;1.80;;
22531;SDS011;11432;46.924;7.114;2022-11-14T13:32:12;3.95;;;2.40;;
22531;SDS011;11432;46.924;7.114;2022-11-14T13:51:44;5.07;;;3.05;;
22531;SDS011;11432;46.924;7.114;2022-11-14T13:54:11;6.13;;;3.97;;
22531;SDS011;11432;46.924;7.114;2022-11-14T13:56:40;5.28;;;3.28;;
22531;SDS011;11432;46.924;7.114;2022-11-14T14:02:20;5.05;;;3.25;;
22531;SDS011;11432;46.924;7.114;2022-11-14T14:30:27;8.90;;;3.17;;
22531;SDS011;11432;46.924;7.114;2022-11-14T14:35:48;10.13;;;3.80;;
22531;SDS011;11432;46.924;7.114;2022-11-14T14:38:22;6.93;;;2.75;;
22531;SDS011;11432;46.924;7.114;2022-11-14T14:40:51;5.68;;;2.70;;
22531;SDS011;11432;46.924;7.114;2022-11-14T14:43:21;5.13;;;2.58;;
22531;SDS011;11432;46.924;7.114;2022-11-14T14:45:56;4.55;;;2.30;;
22531;SDS011;11432;46.924;7.114;2022-11-14T14:48:24;6.95;;;1.98;;
22531;SDS011;11432;46.924;7.114;2022-11-14T14:50:53;2.60;;;1.50;;
22531;SDS011;11432;46.924;7.114;2022-11-14T14:53:21;3.25;;;1.38;;
22531;SDS011;11432;46.924;7.114;2022-11-14T14:55:59;4.77;;;1.43;;
22531;SDS011;11432;46.924;7.114;2022-11-14T14:58:31;3.42;;;1.30;;
22531;SDS011;11432;46.924;7.114;2022-11-14T15:01:05;3.00;;;1.38;;
22531;SDS011;11432;46.924;7.114;2022-11-14T15:03:37;5.22;;;2.47;;
22531;SDS011;11432;46.924;7.114;2022-11-14T15:08:54;4.20;;;2.10;;
22531;SDS011;11432;46.924;7.114;2022-11-14T15:11:41;3.03;;;1.52;;
22531;SDS011;11432;46.924;7.114;2022-11-14T15:14:12;7.68;;;1.77;;
22531;SDS011;11432;46.924;7.114;2022-11-14T15:16:41;2.33;;;1.25;;
22531;SDS011;11432;46.924;7.114;2022-11-14T15:19:11;2.97;;;1.60;;
22531;SDS011;11432;46.924;7.114;2022-11-14T15:21:39;4.45;;;1.85;;
22531;SDS011;11432;46.924;7.114;2022-11-14T15:26:44;7.97;;;3.50;;
22531;SDS011;11432;46.924;7.114;2022-11-14T15:29:18;11.15;;;4.05;;
22531;SDS011;11432;46.924;7.114;2022-11-14T15:31:45;5.25;;;3.70;;
22531;SDS011;11432;46.924;7.114;2022-11-14T15:34:31;6.82;;;3.60;;
22531;SDS011;11432;46.924;7.114;2022-11-14T15:39:40;9.43;;;3.58;;
22531;SDS011;11432;46.924;7.114;2022-11-14T15:42:25;5.82;;;3.72;;
22531;SDS011;11432;46.924;7.114;2022-11-14T15:44:52;8.98;;;3.60;;
22531;SDS011;11432;46.924;7.114;2022-11-14T15:52:27;14.00;;;5.50;;
22531;SDS011;11432;46.924;7.114;2022-11-14T15:54:57;10.45;;;5.30;;
22531;SDS011;11432;46.924;7.114;2022-11-14T15:57:23;9.95;;;5.05;;
22531;SDS011;11432;46.924;7.114;2022-11-14T15:59:49;11.07;;;4.50;;
22531;SDS011;11432;46.924;7.114;2022-11-14T16:02:15;9.25;;;4.35;;
22531;SDS011;11432;46.924;7.114;2022-11-14T16:04:45;8.02;;;4.35;;
22531;SDS011;11432;46.924;7.114;2022-11-14T16:07:12;12.70;;;5.95;;
22531;SDS011;11432;46.924;7.114;2022-11-14T16:09:38;15.25;;;5.65;;
22531;SDS011;11432;46.924;7.114;2022-11-14T16:12:04;11.20;;;5.15;;
22531;SDS011;11432;46.924;7.114;2022-11-14T16:14:30;6.85;;;3.95;;
22531;SDS011;11432;46.924;7.114;2022-11-14T16:16:56;8.65;;;4.43;;
22531;SDS011;11432;46.924;7.114;2022-11-14T16:19:22;8.60;;;4.28;;
22531;SDS011;11432;46.924;7.114;2022-11-14T16:21:47;10.85;;;4.70;;
22531;SDS011;11432;46.924;7.114;2022-11-14T16:24:15;8.75;;;4.60;;
22531;SDS011;11432;46.924;7.114;2022-11-14T16:29:08;8.15;;;4.20;;
22531;SDS011;11432;46.924;7.114;2022-11-14T16:31:34;6.45;;;4.55;;
22531;SDS011;11432;46.924;7.114;2022-11-14T16:34:00;7.57;;;4.07;;
22531;SDS011;11432;46.924;7.114;2022-11-14T16:36:26;6.45;;;4.13;;
22531;SDS011;11432;46.924;7.114;2022-11-14T16:38:52;7.20;;;3.88;;
22531;SDS011;11432;46.924;7.114;2022-11-14T16:41:24;8.13;;;4.20;;
22531;SDS011;11432;46.924;7.114;2022-11-14T16:43:51;9.30;;;4.18;;
22531;SDS011;11432;46.924;7.114;2022-11-14T16:46:18;7.97;;;4.05;;
22531;SDS011;11432;46.924;7.114;2022-11-14T16:48:44;6.28;;;4.25;;
22531;SDS011;11432;46.924;7.114;2022-11-14T16:51:10;11.25;;;4.28;;
22531;SDS011;11432;46.924;7.114;2022-11-14T16:53:35;9.10;;;4.18;;
22531;SDS011;11432;46.924;7.114;2022-11-14T16:56:01;7.53;;;4.40;;
22531;SDS011;11432;46.924;7.114;2022-11-14T16:58:26;8.80;;;4.05;;
22531;SDS011;11432;46.924;7.114;2022-11-14T17:00:52;6.93;;;4.22;;
22531;SDS011;11432;46.924;7.114;2022-11-14T17:03:18;12.88;;;4.80;;
22531;SDS011;11432;46.924;7.114;2022-11-14T17:05:44;8.82;;;5.40;;
22531;SDS011;11432;46.924;7.114;2022-11-14T17:08:15;9.65;;;5.13;;
22531;SDS011;11432;46.924;7.114;2022-11-14T17:10:41;9.35;;;4.82;;
22531;SDS011;11432;46.924;7.114;2022-11-14T17:13:08;7.32;;;4.72;;
22531;SDS011;11432;46.924;7.114;2022-11-14T17:15:34;7.95;;;4.40;;
22531;SDS011;11432;46.924;7.114;2022-11-14T17:18:00;7.47;;;4.35;;
22531;SDS011;11432;46.924;7.114;2022-11-14T17:20:25;10.02;;;4.50;;
22531;SDS011;11432;46.924;7.114;2022-11-14T17:22:51;7.90;;;4.72;;
22531;SDS011;11432;46.924;7.114;2022-11-14T17:25:17;8.05;;;4.97;;
22531;SDS011;11432;46.924;7.114;2022-11-14T17:27:43;9.63;;;5.15;;
22531;SDS011;11432;46.924;7.114;2022-11-14T17:30:11;8.43;;;4.45;;
22531;SDS011;11432;46.924;7.114;2022-11-14T17:32:39;7.20;;;4.35;;
22531;SDS011;11432;46.924;7.114;2022-11-14T17:35:04;7.70;;;4.43;;
22531;SDS011;11432;46.924;7.114;2022-11-14T17:37:30;9.48;;;4.32;;